Terminal Aerodrome Forecast
Issued by NWS

Home | Current Version | Previous Version | Text Only | Print | Product List | Glossary On
Versions: 1 2 3 4 5 6 7 8 9 10 11 12 13 14 15 16 17 18 19 20 21 22 23 24 25 26 27 28 29
000
FTUS41 KOKX 252155 AAB
TAFSWF
TAF AMD
KSWF 252155Z 2522/2624 07010G20KT 5SM -RA BR SCT008 OVC012
     FM260000 07012KT 2SM RA BR OVC007
     FM260600 05010KT 1SM -RA BR OVC004
     FM261300 07007KT 2SM BR VCSH BKN007 OVC012
     FM261600 03007KT 3SM BR BKN009 OVC015
      AMD NOT SKED=

USA.gov is the U.S. government's official web portal to all federal, state and local government web resources and services.